createdAt,value
2023-04-01T00:01:10.092Z,99282.19
2023-04-01T00:03:45.485Z,99280.78
2023-04-01T00:06:26.692Z,99286.16
2023-04-01T00:08:58.852Z,99287.81
2023-04-01T00:11:31.562Z,99286.00
2023-04-01T00:14:04.300Z,99284.75
2023-04-01T00:16:53.992Z,99282.69
2023-04-01T00:19:28.856Z,99283.69
2023-04-01T00:22:01.194Z,99284.59
2023-04-01T00:24:33.378Z,99286.78
2023-04-01T00:27:05.956Z,99287.16
2023-04-01T00:29:38.172Z,99288.25
2023-04-01T00:32:10.659Z,99289.72
2023-04-01T00:34:46.020Z,99287.09
2023-04-01T00:37:18.480Z,99283.78
2023-04-01T00:39:50.334Z,99283.59
2023-04-01T00:42:23.176Z,99284.16
2023-04-01T00:44:56.832Z,99294.03
2023-04-01T00:47:31.007Z,99293.66
2023-04-01T00:50:05.776Z,99291.63
2023-04-01T00:52:37.999Z,99284.00
2023-04-01T00:55:12.819Z,99287.72
2023-04-01T00:57:50.461Z,99291.63
2023-04-01T01:00:25.058Z,99289.06
2023-04-01T01:02:57.372Z,99289.97
2023-04-01T01:08:27.783Z,99290.84
2023-04-01T01:10:59.580Z,99288.94
2023-04-01T01:13:37.022Z,99281.34
2023-04-01T01:16:14.851Z,99290.28
2023-04-01T01:19:23.597Z,99294.16
2023-04-01T01:22:41.875Z,99287.16
2023-04-01T01:25:30.665Z,99291.09
2023-04-01T01:28:41.177Z,99296.47
2023-04-01T01:34:57.567Z,99294.59
2023-04-01T01:40:38.776Z,99293.81
2023-04-01T01:43:16.038Z,99292.91
2023-04-01T01:45:51.702Z,99293.50
2023-04-01T01:48:24.363Z,99296.28
2023-04-01T01:50:57.158Z,99299.38
2023-04-01T01:53:31.975Z,99298.75
2023-04-01T01:56:03.713Z,99301.47
2023-04-01T01:58:42.115Z,99300.25
2023-04-01T02:04:56.437Z,99303.06
2023-04-01T02:07:34.996Z,99303.25
2023-04-01T02:10:11.023Z,99307.78
2023-04-01T02:13:16.859Z,99308.69
2023-04-01T02:15:54.486Z,99311.63
2023-04-01T02:18:27.921Z,99308.34
2023-04-01T02:21:03.571Z,99310.44
2023-04-01T02:23:38.034Z,99311.72
2023-04-01T02:26:16.296Z,99311.97
2023-04-01T02:28:50.820Z,99305.16
2023-04-01T02:31:23.581Z,99314.66
2023-04-01T02:33:56.560Z,99314.47
2023-04-01T02:36:29.248Z,99317.34
2023-04-01T02:39:05.614Z,99317.91
2023-04-01T02:41:43.474Z,99324.56
2023-04-01T02:44:58.778Z,99320.66
2023-04-01T02:47:31.397Z,99323.97
2023-04-01T02:50:32.529Z,99322.91
2023-04-01T02:53:05.259Z,99329.50
2023-04-01T02:55:37.962Z,99329.44
2023-04-01T02:58:17.399Z,99325.84
2023-04-01T03:00:50.802Z,99328.09
2023-04-01T03:03:23.426Z,99328.88
2023-04-01T03:05:56.797Z,99329.09
2023-04-01T03:08:29.137Z,99330.59
2023-04-01T03:11:00.856Z,99328.91
2023-04-01T03:13:35.557Z,99331.41
2023-04-01T03:16:08.902Z,99337.22
2023-04-01T03:18:45.777Z,99328.59
2023-04-01T03:21:28.322Z,99332.88
2023-04-01T03:24:04.123Z,99330.63
2023-04-01T03:26:36.763Z,99336.84
2023-04-01T03:29:11.634Z,99335.38
2023-04-01T03:31:43.361Z,99336.38
2023-04-01T03:34:15.592Z,99343.25
2023-04-01T03:36:47.876Z,99339.69
2023-04-01T03:39:21.418Z,99347.44
2023-04-01T03:41:53.255Z,99344.19
2023-04-01T03:44:28.093Z,99350.75
2023-04-01T03:46:59.895Z,99352.84
2023-04-01T03:49:33.554Z,99358.88
2023-04-01T03:52:06.473Z,99354.78
2023-04-01T03:54:38.944Z,99358.31
2023-04-01T03:57:10.937Z,99352.16
2023-04-01T03:59:46.007Z,99363.13
2023-04-01T04:02:17.793Z,99360.91
2023-04-01T04:04:50.584Z,99358.44
2023-04-01T04:07:22.354Z,99364.22
2023-04-01T04:09:54.380Z,99372.91
2023-04-01T04:12:26.145Z,99368.91
2023-04-01T04:15:00.872Z,99373.63
2023-04-01T04:17:32.701Z,99373.06
2023-04-01T04:20:05.136Z,99380.28
2023-04-01T04:22:36.924Z,99371.38
2023-04-01T04:25:09.989Z,99379.44
2023-04-01T04:27:41.859Z,99380.19
2023-04-01T04:30:17.659Z,99384.09
2023-04-01T04:32:49.531Z,99386.84
2023-04-01T04:35:21.678Z,99382.06
2023-04-01T04:37:53.378Z,99392.59
2023-04-01T04:40:26.296Z,99388.91
2023-04-01T04:43:00.017Z,99395.88
2023-04-01T04:45:36.143Z,99395.66
2023-04-01T04:48:09.762Z,99399.13
2023-04-01T04:50:47.118Z,99397.88
2023-04-01T04:53:22.118Z,99401.84
2023-04-01T04:55:56.100Z,99400.38
2023-04-01T04:58:33.304Z,99393.19
2023-04-01T05:01:15.103Z,99401.84
2023-04-01T05:03:49.600Z,99403.78
2023-04-01T05:06:23.583Z,99397.59
2023-04-01T05:08:57.932Z,99404.81
2023-04-01T05:11:31.554Z,99405.63
2023-04-01T05:14:03.632Z,99402.19
2023-04-01T05:16:38.653Z,99411.72
2023-04-01T05:19:18.115Z,99411.25
2023-04-01T05:21:54.256Z,99412.91
2023-04-01T05:24:28.192Z,99411.50
2023-04-01T05:27:00.800Z,99425.91
2023-04-01T05:29:32.535Z,99412.53
2023-04-01T05:32:07.659Z,99419.09
2023-04-01T05:34:39.494Z,99421.59
2023-04-01T05:37:11.945Z,99421.22
2023-04-01T05:39:44.223Z,99423.69
2023-04-01T05:42:17.210Z,99419.63
2023-04-01T05:44:48.961Z,99423.69
2023-04-01T05:47:24.502Z,99424.78
2023-04-01T05:49:56.754Z,99429.16
2023-04-01T05:52:29.014Z,99431.44
2023-04-01T05:55:01.613Z,99430.66
2023-04-01T05:57:34.300Z,99434.31
2023-04-01T06:00:07.176Z,99431.44
2023-04-01T06:02:43.372Z,99445.06
2023-04-01T06:05:21.313Z,99440.78
2023-04-01T06:07:59.744Z,99447.59
2023-04-01T06:10:55.491Z,99447.78
2023-04-01T06:13:40.637Z,99447.03
2023-04-01T06:16:19.518Z,99454.44
2023-04-01T06:19:24.017Z,99453.66
2023-04-01T06:22:24.912Z,99451.81
2023-04-01T06:25:18.254Z,99462.53
2023-04-01T06:28:11.939Z,99468.38
2023-04-01T06:30:49.133Z,99462.44
2023-04-01T06:33:42.911Z,99471.78
2023-04-01T06:36:30.085Z,99469.72
2023-04-01T06:39:29.721Z,99470.88
2023-04-01T06:42:28.837Z,99473.09
2023-04-01T06:45:14.777Z,99473.56
2023-04-01T06:47:57.352Z,99479.34
2023-04-01T06:50:34.975Z,99481.84
2023-04-01T06:53:14.304Z,99481.28
2023-04-01T06:55:52.318Z,99485.81
2023-04-01T06:58:27.507Z,99480.84
2023-04-01T07:01:02.406Z,99485.44
2023-04-01T07:03:38.885Z,99491.44
2023-04-01T07:06:16.281Z,99488.56
2023-04-01T07:08:50.076Z,99491.03
2023-04-01T07:11:30.955Z,99487.22
2023-04-01T07:14:07.936Z,99489.75
2023-04-01T07:16:44.376Z,99496.13
2023-04-01T07:19:25.719Z,99498.25
2023-04-01T07:22:01.276Z,99492.97
2023-04-01T07:24:38.235Z,99495.00
2023-04-01T07:27:15.214Z,99491.84
2023-04-01T07:29:47.635Z,99494.06
2023-04-01T07:32:27.906Z,99509.44
2023-04-01T07:35:33.531Z,99500.97
2023-04-01T07:38:26.635Z,99506.59
2023-04-01T07:41:12.226Z,99506.13
2023-04-01T07:44:01.239Z,99503.66
2023-04-01T07:46:51.848Z,99508.94
2023-04-01T07:49:33.322Z,99516.47
2023-04-01T07:52:11.057Z,99515.69
2023-04-01T07:54:49.677Z,99515.78
2023-04-01T07:57:25.269Z,99514.75
2023-04-01T08:00:06.708Z,99521.06
2023-04-01T08:02:52.640Z,99528.53
2023-04-01T08:05:31.962Z,99531.69
2023-04-01T08:08:14.151Z,99535.81
2023-04-01T08:10:54.596Z,99533.31
2023-04-01T08:13:36.594Z,99530.84
2023-04-01T08:16:20.812Z,99532.31
2023-04-01T08:19:03.110Z,99531.03
2023-04-01T08:21:39.771Z,99536.41
2023-04-01T08:24:22.829Z,99540.56
2023-04-01T08:26:59.544Z,99537.97
2023-04-01T08:29:43.376Z,99545.44
2023-04-01T08:32:23.534Z,99548.50
2023-04-01T08:35:02.925Z,99549.84
2023-04-01T08:37:39.589Z,99546.56
2023-04-01T08:40:33.191Z,99565.47
2023-04-01T08:43:17.090Z,99563.22
2023-04-01T08:46:01.360Z,99562.81
2023-04-01T08:48:52.955Z,99559.81
2023-04-01T08:51:57.450Z,99565.28
2023-04-01T08:54:52.500Z,99573.41
2023-04-01T08:57:39.200Z,99571.31
2023-04-01T09:00:26.649Z,99569.34
2023-04-01T09:03:30.890Z,99578.97
2023-04-01T09:06:32.721Z,99571.16
2023-04-01T09:09:23.816Z,99574.28
2023-04-01T09:12:17.520Z,99581.00
2023-04-01T09:15:22.821Z,99586.53
2023-04-01T09:18:28.722Z,99589.81
2023-04-01T09:21:29.079Z,99596.06
2023-04-01T09:24:39.681Z,99603.81
2023-04-01T09:27:24.960Z,99602.72
2023-04-01T09:30:25.363Z,99603.41
2023-04-01T09:33:21.457Z,99616.25
2023-04-01T09:36:03.735Z,99618.00
2023-04-01T09:38:49.202Z,99621.31
2023-04-01T09:41:32.908Z,99628.50
2023-04-01T09:44:13.200Z,99624.13
2023-04-01T09:47:05.583Z,99631.00
2023-04-01T09:50:01.538Z,99631.81
2023-04-01T09:52:46.556Z,99635.44
2023-04-01T09:55:53.672Z,99640.00
2023-04-01T09:58:59.421Z,99642.75
2023-04-01T10:02:03.986Z,99642.75
2023-04-01T10:05:09.533Z,99633.22
2023-04-01T10:08:21.561Z,99644.22
2023-04-01T10:11:13.186Z,99653.59
2023-04-01T10:14:17.377Z,99659.88
2023-04-01T10:17:17.793Z,99661.63
2023-04-01T10:20:16.214Z,99659.31
2023-04-01T10:23:18.072Z,99663.94
2023-04-01T10:30:29.979Z,99669.56
2023-04-01T10:33:38.437Z,99663.38
2023-04-01T10:36:24.830Z,99679.94
2023-04-01T10:39:20.662Z,99679.47
2023-04-01T10:42:19.228Z,99677.84
2023-04-01T10:45:06.067Z,99682.91
2023-04-01T10:48:06.855Z,99676.84
2023-04-01T10:51:08.481Z,99682.59
2023-04-01T10:53:51.662Z,99683.81
2023-04-01T10:56:38.496Z,99682.69
2023-04-01T10:59:44.053Z,99676.66
2023-04-01T11:02:47.543Z,99681.38
2023-04-01T11:05:46.182Z,99682.69
2023-04-01T11:08:29.766Z,99690.84
2023-04-01T11:11:27.876Z,99709.50
2023-04-01T11:14:31.903Z,99699.50
2023-04-01T11:17:29.985Z,99704.84
2023-04-01T11:20:21.776Z,99705.44
2023-04-01T11:23:14.159Z,99704.91
2023-04-01T11:26:03.264Z,99707.63
2023-04-01T11:29:07.857Z,99703.22
2023-04-01T11:32:10.671Z,99714.38
2023-04-01T11:35:00.547Z,99718.28
2023-04-01T11:37:51.927Z,99719.81
2023-04-01T11:40:39.582Z,99727.16
2023-04-01T11:43:32.187Z,99726.44
2023-04-01T11:46:15.212Z,99733.13
2023-04-01T11:49:01.456Z,99735.22
2023-04-01T11:51:58.771Z,99743.50
2023-04-01T11:54:53.614Z,99743.75
2023-04-01T11:57:46.895Z,99736.97
2023-04-01T12:00:46.145Z,99743.22
2023-04-01T12:03:42.340Z,99752.91
2023-04-01T12:06:23.704Z,99766.41
2023-04-01T12:09:06.671Z,99762.72
2023-04-01T12:11:46.908Z,99765.50
2023-04-01T12:14:29.229Z,99778.44
2023-04-01T12:17:15.089Z,99769.63
2023-04-01T12:20:01.182Z,99778.34
2023-04-01T12:22:48.227Z,99781.09
2023-04-01T12:25:37.527Z,99782.28
2023-04-01T12:28:21.778Z,99796.50
2023-04-01T12:31:07.838Z,99796.88
2023-04-01T12:34:01.337Z,99782.78
2023-04-01T12:36:57.832Z,99786.97
2023-04-01T12:39:34.740Z,99799.59
2023-04-01T12:42:22.478Z,99794.38
2023-04-01T12:45:09.470Z,99801.50
2023-04-01T12:48:09.820Z,99801.69
2023-04-01T12:51:05.466Z,99798.84
2023-04-01T12:54:06.509Z,99807.13
2023-04-01T12:56:53.042Z,99817.94
2023-04-01T12:59:37.350Z,99819.41
2023-04-01T13:02:24.377Z,99827.94
2023-04-01T13:05:21.270Z,99820.91
2023-04-01T13:08:10.310Z,99826.44
2023-04-01T13:11:04.829Z,99836.38
2023-04-01T13:14:21.557Z,99833.53
2023-04-01T13:17:07.599Z,99834.00
2023-04-01T13:20:02.011Z,99840.19
2023-04-01T13:22:53.519Z,99846.38
2023-04-01T13:25:31.899Z,99846.22
2023-04-01T13:28:17.795Z,99852.97
2023-04-01T13:30:59.929Z,99860.44
2023-04-01T13:33:38.072Z,99867.44
2023-04-01T13:36:21.696Z,99859.75
2023-04-01T13:39:08.541Z,99865.97
2023-04-01T13:41:56.311Z,99864.56
2023-04-01T13:44:39.608Z,99878.53
2023-04-01T13:47:46.836Z,99870.72
2023-04-01T13:50:51.538Z,99877.25
2023-04-01T13:53:45.168Z,99887.44
2023-04-01T13:56:38.150Z,99880.56
2023-04-01T13:59:27.512Z,99879.75
2023-04-01T14:02:24.700Z,99891.59
2023-04-01T14:05:22.373Z,99889.09
2023-04-01T14:08:14.508Z,99897.44
2023-04-01T14:10:55.638Z,99901.44
2023-04-01T14:13:36.523Z,99898.81
2023-04-01T14:16:37.936Z,99910.50
2023-04-01T14:19:29.368Z,99916.56
2023-04-01T14:22:14.928Z,99911.03
2023-04-01T14:24:57.931Z,99918.19
2023-04-01T14:27:46.367Z,99926.38
2023-04-01T14:30:40.846Z,99930.88
2023-04-01T14:33:38.999Z,99931.72
2023-04-01T14:36:53.309Z,99943.81
2023-04-01T14:39:51.768Z,99941.44
2023-04-01T14:42:43.009Z,99929.25
2023-04-01T14:45:50.356Z,99943.47
2023-04-01T14:48:31.731Z,99936.47
2023-04-01T14:51:23.130Z,99953.50
2023-04-01T14:54:24.088Z,99951.84
2023-04-01T14:57:16.528Z,99947.81
2023-04-01T14:59:54.208Z,99957.38
2023-04-01T15:02:51.785Z,99970.38
2023-04-01T15:05:37.798Z,99976.72
2023-04-01T15:08:23.527Z,99978.75
2023-04-01T15:11:16.961Z,99974.88
2023-04-01T15:14:19.610Z,99987.59
2023-04-01T15:17:11.536Z,99990.63
2023-04-01T15:19:58.261Z,99999.31
2023-04-01T15:22:49.171Z,99996.31
2023-04-01T15:25:35.761Z,99998.50
2023-04-01T15:28:18.359Z,100001.66
2023-04-01T15:30:58.838Z,100001.63
2023-04-01T15:33:58.700Z,100004.22
2023-04-01T15:36:45.246Z,100009.66
2023-04-01T15:39:23.491Z,100015.06
2023-04-01T15:42:25.016Z,100013.34
2023-04-01T15:45:10.944Z,100021.22
2023-04-01T15:47:47.855Z,100023.72
2023-04-01T15:50:56.397Z,100028.75
2023-04-01T15:54:00.611Z,100038.06
2023-04-01T15:56:49.812Z,100036.63
2023-04-01T15:59:49.490Z,100041.13
2023-04-01T16:02:34.747Z,100065.28
2023-04-01T16:05:25.089Z,100045.00
2023-04-01T16:08:13.930Z,100053.28
2023-04-01T16:11:03.888Z,100057.66
2023-04-01T16:13:53.171Z,100058.56
2023-04-01T16:16:37.005Z,100067.34
2023-04-01T16:19:37.307Z,100072.53
2023-04-01T16:22:14.766Z,100078.50
2023-04-01T16:24:55.485Z,100080.44
2023-04-01T16:27:38.591Z,100093.50
2023-04-01T16:30:32.393Z,100095.47
2023-04-01T16:33:14.730Z,100104.53
2023-04-01T16:35:52.044Z,100103.47
2023-04-01T16:38:29.713Z,100107.75
2023-04-01T16:41:16.602Z,100106.50
2023-04-01T16:43:55.845Z,100113.16
2023-04-01T16:46:38.886Z,100117.34
2023-04-01T16:49:36.808Z,100117.38
2023-04-01T16:52:22.214Z,100119.16
2023-04-01T16:55:02.065Z,100126.22
2023-04-01T16:57:52.033Z,100126.78
2023-04-01T17:00:32.231Z,100129.25
2023-04-01T17:03:21.748Z,100150.06
2023-04-01T17:06:07.988Z,100152.88
2023-04-01T17:09:08.953Z,100160.94
2023-04-01T17:11:48.450Z,100170.97
2023-04-01T17:14:32.757Z,100168.72
2023-04-01T17:17:27.259Z,100178.13
2023-04-01T17:20:18.171Z,100186.19
2023-04-01T17:23:00.357Z,100182.53
2023-04-01T17:25:57.680Z,100194.75
2023-04-01T17:28:41.482Z,100208.09
2023-04-01T17:31:26.695Z,100206.38
2023-04-01T17:34:11.571Z,100206.63
2023-04-01T17:37:02.477Z,100221.59
2023-04-01T17:39:54.012Z,100224.44
2023-04-01T17:42:38.132Z,100233.75
2023-04-01T17:45:22.136Z,100233.88
2023-04-01T17:48:15.230Z,100241.47
2023-04-01T17:51:03.060Z,100250.44
2023-04-01T17:53:49.492Z,100245.81
2023-04-01T17:56:38.891Z,100253.91
2023-04-01T17:59:32.452Z,100254.63
2023-04-01T18:02:20.367Z,100264.19
2023-04-01T18:05:19.674Z,100283.84
2023-04-01T18:08:07.336Z,100284.97
2023-04-01T18:10:46.393Z,100281.19
2023-04-01T18:13:51.479Z,100284.81
2023-04-01T18:16:37.135Z,100285.09
2023-04-01T18:19:21.375Z,100296.03
2023-04-01T18:22:04.022Z,100296.19
2023-04-01T18:24:41.405Z,100308.94
2023-04-01T18:27:21.833Z,100311.63
2023-04-01T18:29:57.954Z,100309.63
2023-04-01T18:32:40.868Z,100310.91
2023-04-01T18:35:33.632Z,100330.25
2023-04-01T18:38:17.402Z,100330.41
2023-04-01T18:40:59.040Z,100346.66
2023-04-01T18:43:39.479Z,100345.13
2023-04-01T18:46:26.090Z,100346.63
2023-04-01T18:49:10.874Z,100351.84
2023-04-01T18:51:50.410Z,100359.00
2023-04-01T18:54:31.930Z,100366.69
2023-04-01T18:57:09.222Z,100367.97
2023-04-01T18:59:48.161Z,100375.84
2023-04-01T19:02:33.019Z,100381.03
2023-04-01T19:05:11.332Z,100384.28
2023-04-01T19:07:51.570Z,100383.53
2023-04-01T19:10:45.219Z,100381.13
2023-04-01T19:13:31.055Z,100387.00
2023-04-01T19:16:20.388Z,100395.53
2023-04-01T19:19:21.370Z,100401.88
2023-04-01T19:22:01.173Z,100409.28
2023-04-01T19:25:00.034Z,100418.75
2023-04-01T19:27:42.167Z,100418.47
2023-04-01T19:30:38.983Z,100413.00
2023-04-01T19:33:26.889Z,100416.38
2023-04-01T19:36:08.207Z,100421.13
2023-04-01T19:38:44.054Z,100421.22
2023-04-01T19:41:31.933Z,100432.47
2023-04-01T19:44:27.690Z,100429.75
2023-04-01T19:47:09.137Z,100439.41
2023-04-01T19:49:55.317Z,100450.34
2023-04-01T19:52:35.473Z,100452.31
2023-04-01T19:55:24.918Z,100454.41
2023-04-01T19:58:06.518Z,100471.34
2023-04-01T20:00:47.733Z,100470.31
2023-04-01T20:03:39.088Z,100479.69
2023-04-01T20:06:27.689Z,100480.66
2023-04-01T20:09:28.157Z,100479.84
2023-04-01T20:12:05.256Z,100485.06
2023-04-01T20:14:45.481Z,100492.66
2023-04-01T20:17:26.423Z,100499.56
2023-04-01T20:20:04.700Z,100497.53
2023-04-01T20:23:03.271Z,100503.91
2023-04-01T20:25:44.108Z,100515.66
2023-04-01T20:28:25.110Z,100518.69
2023-04-01T20:31:17.967Z,100528.44
2023-04-01T20:34:41.551Z,100530.81
2023-04-01T20:37:56.294Z,100537.69
2023-04-01T20:40:46.590Z,100533.91
2023-04-01T20:43:59.120Z,100543.78
2023-04-01T20:46:39.672Z,100550.09
2023-04-01T20:49:36.535Z,100549.00
2023-04-01T20:52:26.873Z,100543.69
2023-04-01T20:55:37.836Z,100558.72
2023-04-01T20:58:26.574Z,100555.13
2023-04-01T21:01:12.621Z,100560.06
2023-04-01T21:03:53.980Z,100572.50
2023-04-01T21:06:43.803Z,100569.34
2023-04-01T21:09:45.666Z,100579.47
2023-04-01T21:12:32.129Z,100585.06
2023-04-01T21:15:25.421Z,100587.97
2023-04-01T21:18:14.357Z,100600.44
2023-04-01T21:21:08.135Z,100604.06
2023-04-01T21:23:54.737Z,100604.44
2023-04-01T21:26:44.895Z,100609.88
2023-04-01T21:29:43.516Z,100617.56
2023-04-01T21:32:33.742Z,100617.16
2023-04-01T21:35:13.774Z,100622.25
2023-04-01T21:38:11.595Z,100646.56
2023-04-01T21:41:10.013Z,100638.75
2023-04-01T21:43:58.060Z,100641.66
2023-04-01T21:47:03.363Z,100644.31
2023-04-01T21:50:08.691Z,100647.72
2023-04-01T21:53:11.954Z,100651.09
2023-04-01T21:56:15.264Z,100653.28
2023-04-01T21:59:32.095Z,100667.31
2023-04-01T22:02:45.765Z,100668.41
2023-04-01T22:05:26.819Z,100669.97
2023-04-01T22:08:13.622Z,100675.53
2023-04-01T22:11:00.255Z,100679.75
2023-04-01T22:13:40.802Z,100688.22
2023-04-01T22:16:21.208Z,100710.56
2023-04-01T22:19:00.672Z,100693.66
2023-04-01T22:21:43.417Z,100708.88
2023-04-01T22:24:22.658Z,100708.50
2023-04-01T22:27:02.892Z,100707.78
2023-04-01T22:29:42.953Z,100712.59
2023-04-01T22:32:23.785Z,100712.72
2023-04-01T22:35:02.061Z,100710.22
2023-04-01T22:37:45.319Z,100718.78
2023-04-01T22:40:30.216Z,100724.19
2023-04-01T22:43:10.218Z,100723.47
2023-04-01T22:46:10.638Z,100723.59
2023-04-01T22:48:49.078Z,100727.69
2023-04-01T22:51:28.754Z,100728.78
2023-04-01T22:54:16.399Z,100744.84
2023-04-01T22:56:54.628Z,100749.34
2023-04-01T22:59:36.255Z,100744.78
2023-04-01T23:02:15.276Z,100750.44
2023-04-01T23:04:51.751Z,100752.88
2023-04-01T23:07:36.961Z,100763.34
2023-04-01T23:10:24.682Z,100765.53
2023-04-01T23:13:01.319Z,100772.97
2023-04-01T23:15:34.849Z,100769.72
2023-04-01T23:18:19.300Z,100775.06
2023-04-01T23:21:13.396Z,100777.84
2023-04-01T23:24:02.644Z,100774.44
2023-04-01T23:26:44.966Z,100778.28
2023-04-01T23:29:20.162Z,100794.13
2023-04-01T23:32:01.172Z,100791.25
2023-04-01T23:34:35.621Z,100789.84
2023-04-01T23:37:13.113Z,100798.88
